sensor_id;sensor_type;location;lat;lon;timestamp;temperature;humidity
2010;DHT22;1008;47.404;8.502;2022-07-05T00:01:06;21.40;99.90
2010;DHT22;1008;47.404;8.502;2022-07-05T00:03:33;21.40;99.90
2010;DHT22;1008;47.404;8.502;2022-07-05T00:06:00;21.30;99.90
2010;DHT22;1008;47.404;8.502;2022-07-05T00:08:27;21.40;99.90
2010;DHT22;1008;47.404;8.502;2022-07-05T00:10:55;21.30;99.90
2010;DHT22;1008;47.404;8.502;2022-07-05T00:13:22;21.30;99.90
2010;DHT22;1008;47.404;8.502;2022-07-05T00:15:48;21.30;99.90
2010;DHT22;1008;47.404;8.502;2022-07-05T00:18:16;21.40;99.90
2010;DHT22;1008;47.404;8.502;2022-07-05T00:20:42;21.40;99.90
2010;DHT22;1008;47.404;8.502;2022-07-05T00:23:11;21.40;99.90
2010;DHT22;1008;47.404;8.502;2022-07-05T00:25:37;21.30;99.90
2010;DHT22;1008;47.404;8.502;2022-07-05T00:28:06;21.10;99.90
2010;DHT22;1008;47.404;8.502;2022-07-05T00:30:32;21.10;99.90
2010;DHT22;1008;47.404;8.502;2022-07-05T00:32:59;21.10;99.90
2010;DHT22;1008;47.404;8.502;2022-07-05T00:35:26;21.00;99.90
2010;DHT22;1008;47.404;8.502;2022-07-05T00:37:53;20.90;99.90
2010;DHT22;1008;47.404;8.502;2022-07-05T00:40:19;21.00;99.90
2010;DHT22;1008;47.404;8.502;2022-07-05T00:42:46;20.70;99.90
2010;DHT22;1008;47.404;8.502;2022-07-05T00:45:14;20.70;99.90
2010;DHT22;1008;47.404;8.502;2022-07-05T00:47:41;20.80;99.90
2010;DHT22;1008;47.404;8.502;2022-07-05T00:50:08;20.80;99.90
2010;DHT22;1008;47.404;8.502;2022-07-05T00:52:35;20.80;99.90
2010;DHT22;1008;47.404;8.502;2022-07-05T00:55:03;20.50;99.90
2010;DHT22;1008;47.404;8.502;2022-07-05T00:57:30;20.70;99.90
2010;DHT22;1008;47.404;8.502;2022-07-05T00:59:57;20.80;99.90
2010;DHT22;1008;47.404;8.502;2022-07-05T01:02:25;20.80;99.90
2010;DHT22;1008;47.404;8.502;2022-07-05T01:04:52;20.90;99.90
2010;DHT22;1008;47.404;8.502;2022-07-05T01:07:21;20.90;99.90
2010;DHT22;1008;47.404;8.502;2022-07-05T01:09:48;20.80;99.90
2010;DHT22;1008;47.404;8.502;2022-07-05T01:12:16;20.90;99.90
2010;DHT22;1008;47.404;8.502;2022-07-05T01:14:43;20.90;99.90
2010;DHT22;1008;47.404;8.502;2022-07-05T01:17:11;21.00;99.90
2010;DHT22;1008;47.404;8.502;2022-07-05T01:19:39;20.80;99.90
2010;DHT22;1008;47.404;8.502;2022-07-05T01:22:12;20.80;99.90
2010;DHT22;1008;47.404;8.502;2022-07-05T01:24:43;20.90;99.90
2010;DHT22;1008;47.404;8.502;2022-07-05T01:27:10;21.00;99.90
2010;DHT22;1008;47.404;8.502;2022-07-05T01:29:37;21.00;99.90
2010;DHT22;1008;47.404;8.502;2022-07-05T01:32:05;21.00;99.90
2010;DHT22;1008;47.404;8.502;2022-07-05T01:34:32;21.00;99.90
2010;DHT22;1008;47.404;8.502;2022-07-05T01:36:59;21.10;99.90
2010;DHT22;1008;47.404;8.502;2022-07-05T01:39:26;21.20;99.90
2010;DHT22;1008;47.404;8.502;2022-07-05T01:41:54;21.30;99.90
2010;DHT22;1008;47.404;8.502;2022-07-05T01:44:21;21.30;99.90
2010;DHT22;1008;47.404;8.502;2022-07-05T01:46:51;21.40;99.90
2010;DHT22;1008;47.404;8.502;2022-07-05T01:49:22;21.10;99.90
2010;DHT22;1008;47.404;8.502;2022-07-05T01:51:53;21.20;99.90
2010;DHT22;1008;47.404;8.502;2022-07-05T01:54:21;21.30;99.90
2010;DHT22;1008;47.404;8.502;2022-07-05T01:56:47;20.90;99.90
2010;DHT22;1008;47.404;8.502;2022-07-05T01:59:16;20.80;99.90
2010;DHT22;1008;47.404;8.502;2022-07-05T02:01:43;20.60;99.90
2010;DHT22;1008;47.404;8.502;2022-07-05T02:04:11;20.60;99.90
2010;DHT22;1008;47.404;8.502;2022-07-05T02:06:38;20.50;99.90
2010;DHT22;1008;47.404;8.502;2022-07-05T02:09:06;20.50;99.90
2010;DHT22;1008;47.404;8.502;2022-07-05T02:11:32;20.60;99.90
2010;DHT22;1008;47.404;8.502;2022-07-05T02:13:59;20.50;99.90
2010;DHT22;1008;47.404;8.502;2022-07-05T02:16:28;20.40;99.90
2010;DHT22;1008;47.404;8.502;2022-07-05T02:18:55;20.30;99.90
2010;DHT22;1008;47.404;8.502;2022-07-05T02:21:22;20.30;99.90
2010;DHT22;1008;47.404;8.502;2022-07-05T02:23:49;20.40;99.90
2010;DHT22;1008;47.404;8.502;2022-07-05T02:26:16;20.50;99.90
2010;DHT22;1008;47.404;8.502;2022-07-05T02:28:43;20.50;99.90
2010;DHT22;1008;47.404;8.502;2022-07-05T02:31:10;20.50;99.90
2010;DHT22;1008;47.404;8.502;2022-07-05T02:33:38;20.40;99.90
2010;DHT22;1008;47.404;8.502;2022-07-05T02:36:09;20.60;99.90
2010;DHT22;1008;47.404;8.502;2022-07-05T02:38:36;20.40;99.90
2010;DHT22;1008;47.404;8.502;2022-07-05T02:41:05;20.60;99.90
2010;DHT22;1008;47.404;8.502;2022-07-05T02:43:32;20.50;99.90
2010;DHT22;1008;47.404;8.502;2022-07-05T02:46:00;20.40;99.90
2010;DHT22;1008;47.404;8.502;2022-07-05T02:48:26;20.50;99.90
2010;DHT22;1008;47.404;8.502;2022-07-05T02:50:55;20.50;99.90
2010;DHT22;1008;47.404;8.502;2022-07-05T02:53:21;20.80;99.90
2010;DHT22;1008;47.404;8.502;2022-07-05T02:55:48;20.70;99.90
2010;DHT22;1008;47.404;8.502;2022-07-05T02:58:15;20.70;99.90
2010;DHT22;1008;47.404;8.502;2022-07-05T03:00:42;20.80;99.90
2010;DHT22;1008;47.404;8.502;2022-07-05T03:03:09;20.60;99.90
2010;DHT22;1008;47.404;8.502;2022-07-05T03:05:36;20.40;99.90
2010;DHT22;1008;47.404;8.502;2022-07-05T03:08:05;20.30;99.90
2010;DHT22;1008;47.404;8.502;2022-07-05T03:10:32;20.30;99.90
2010;DHT22;1008;47.404;8.502;2022-07-05T03:12:58;20.30;99.90
2010;DHT22;1008;47.404;8.502;2022-07-05T03:15:25;20.30;99.90
2010;DHT22;1008;47.404;8.502;2022-07-05T03:17:52;20.40;99.90
2010;DHT22;1008;47.404;8.502;2022-07-05T03:20:19;20.40;99.90
2010;DHT22;1008;47.404;8.502;2022-07-05T03:22:45;20.50;99.90
2010;DHT22;1008;47.404;8.502;2022-07-05T03:25:14;20.50;99.90
2010;DHT22;1008;47.404;8.502;2022-07-05T03:27:40;20.40;99.90
2010;DHT22;1008;47.404;8.502;2022-07-05T03:30:08;20.50;99.90
2010;DHT22;1008;47.404;8.502;2022-07-05T03:32:35;20.60;99.90
2010;DHT22;1008;47.404;8.502;2022-07-05T03:35:02;20.60;99.90
2010;DHT22;1008;47.404;8.502;2022-07-05T03:37:29;20.50;99.90
2010;DHT22;1008;47.404;8.502;2022-07-05T03:39:55;20.40;99.90
2010;DHT22;1008;47.404;8.502;2022-07-05T03:42:24;20.40;99.90
2010;DHT22;1008;47.404;8.502;2022-07-05T03:44:50;20.50;99.90
2010;DHT22;1008;47.404;8.502;2022-07-05T03:47:17;20.50;99.90
2010;DHT22;1008;47.404;8.502;2022-07-05T03:49:44;20.50;99.90
2010;DHT22;1008;47.404;8.502;2022-07-05T03:52:10;20.40;99.90
2010;DHT22;1008;47.404;8.502;2022-07-05T03:54:37;20.60;99.90
2010;DHT22;1008;47.404;8.502;2022-07-05T03:57:04;20.60;99.90
2010;DHT22;1008;47.404;8.502;2022-07-05T03:59:32;20.70;99.90
2010;DHT22;1008;47.404;8.502;2022-07-05T04:01:59;20.60;99.90
2010;DHT22;1008;47.404;8.502;2022-07-05T04:04:26;20.40;99.90
2010;DHT22;1008;47.404;8.502;2022-07-05T04:06:52;20.60;99.90
2010;DHT22;1008;47.404;8.502;2022-07-05T04:09:19;20.60;99.90
2010;DHT22;1008;47.404;8.502;2022-07-05T04:11:46;20.50;99.90
2010;DHT22;1008;47.404;8.502;2022-07-05T04:14:12;20.50;99.90
2010;DHT22;1008;47.404;8.502;2022-07-05T04:16:40;20.40;99.90
2010;DHT22;1008;47.404;8.502;2022-07-05T04:19:07;20.40;99.90
2010;DHT22;1008;47.404;8.502;2022-07-05T04:21:34;20.20;99.90
2010;DHT22;1008;47.404;8.502;2022-07-05T04:24:01;20.40;99.90
2010;DHT22;1008;47.404;8.502;2022-07-05T04:26:27;20.40;99.90
2010;DHT22;1008;47.404;8.502;2022-07-05T04:28:54;20.40;99.90
2010;DHT22;1008;47.404;8.502;2022-07-05T04:31:21;20.50;99.90
2010;DHT22;1008;47.404;8.502;2022-07-05T04:33:49;20.50;99.90
2010;DHT22;1008;47.404;8.502;2022-07-05T04:36:16;20.40;99.90
2010;DHT22;1008;47.404;8.502;2022-07-05T04:38:42;20.40;99.90
2010;DHT22;1008;47.404;8.502;2022-07-05T04:41:09;20.70;99.90
2010;DHT22;1008;47.404;8.502;2022-07-05T04:43:36;20.70;99.90
2010;DHT22;1008;47.404;8.502;2022-07-05T04:46:03;20.40;99.90
2010;DHT22;1008;47.404;8.502;2022-07-05T04:48:29;20.30;99.90
2010;DHT22;1008;47.404;8.502;2022-07-05T04:50:58;20.00;99.90
2010;DHT22;1008;47.404;8.502;2022-07-05T04:53:25;20.10;99.90
2010;DHT22;1008;47.404;8.502;2022-07-05T04:55:51;19.90;99.90
2010;DHT22;1008;47.404;8.502;2022-07-05T04:58:18;19.90;99.90
2010;DHT22;1008;47.404;8.502;2022-07-05T05:00:45;19.70;99.90
2010;DHT22;1008;47.404;8.502;2022-07-05T05:03:12;19.60;99.90
2010;DHT22;1008;47.404;8.502;2022-07-05T05:05:38;19.60;99.90
2010;DHT22;1008;47.404;8.502;2022-07-05T05:08:06;19.60;99.90
2010;DHT22;1008;47.404;8.502;2022-07-05T05:10:33;19.60;99.90
2010;DHT22;1008;47.404;8.502;2022-07-05T05:13:00;19.60;99.90
2010;DHT22;1008;47.404;8.502;2022-07-05T05:15:26;19.70;99.90
2010;DHT22;1008;47.404;8.502;2022-07-05T05:17:53;19.90;99.90
2010;DHT22;1008;47.404;8.502;2022-07-05T05:20:20;19.90;99.90
2010;DHT22;1008;47.404;8.502;2022-07-05T05:22:47;19.90;99.90
2010;DHT22;1008;47.404;8.502;2022-07-05T05:25:15;19.90;99.90
2010;DHT22;1008;47.404;8.502;2022-07-05T05:27:43;20.10;99.90
2010;DHT22;1008;47.404;8.502;2022-07-05T05:30:11;20.20;99.90
2010;DHT22;1008;47.404;8.502;2022-07-05T05:32:38;20.20;99.90
2010;DHT22;1008;47.404;8.502;2022-07-05T05:35:06;20.30;99.90
2010;DHT22;1008;47.404;8.502;2022-07-05T05:37:45;20.30;99.90
2010;DHT22;1008;47.404;8.502;2022-07-05T05:40:12;20.10;99.90
2010;DHT22;1008;47.404;8.502;2022-07-05T05:42:40;20.00;99.90
2010;DHT22;1008;47.404;8.502;2022-07-05T05:45:07;20.10;99.90
2010;DHT22;1008;47.404;8.502;2022-07-05T05:47:43;20.10;99.90
2010;DHT22;1008;47.404;8.502;2022-07-05T05:50:10;20.00;99.90
2010;DHT22;1008;47.404;8.502;2022-07-05T05:52:36;19.80;99.90
2010;DHT22;1008;47.404;8.502;2022-07-05T05:55:04;20.00;99.90
2010;DHT22;1008;47.404;8.502;2022-07-05T05:57:31;19.90;99.90
2010;DHT22;1008;47.404;8.502;2022-07-05T05:59:59;20.10;99.90
2010;DHT22;1008;47.404;8.502;2022-07-05T06:02:26;20.20;99.90
2010;DHT22;1008;47.404;8.502;2022-07-05T06:04:53;20.20;99.90
2010;DHT22;1008;47.404;8.502;2022-07-05T06:07:20;20.10;99.90
2010;DHT22;1008;47.404;8.502;2022-07-05T06:09:46;20.20;99.90
2010;DHT22;1008;47.404;8.502;2022-07-05T06:12:13;20.20;99.90
2010;DHT22;1008;47.404;8.502;2022-07-05T06:14:40;20.50;99.90
2010;DHT22;1008;47.404;8.502;2022-07-05T06:17:08;20.50;99.90
2010;DHT22;1008;47.404;8.502;2022-07-05T06:19:35;20.70;99.90
2010;DHT22;1008;47.404;8.502;2022-07-05T06:22:02;20.70;99.90
2010;DHT22;1008;47.404;8.502;2022-07-05T06:24:28;20.70;99.90
2010;DHT22;1008;47.404;8.502;2022-07-05T06:26:55;20.60;99.90
2010;DHT22;1008;47.404;8.502;2022-07-05T06:29:22;20.60;99.90
2010;DHT22;1008;47.404;8.502;2022-07-05T06:31:48;20.70;99.90
2010;DHT22;1008;47.404;8.502;2022-07-05T06:34:16;20.70;99.90
2010;DHT22;1008;47.404;8.502;2022-07-05T06:36:43;20.70;99.90
2010;DHT22;1008;47.404;8.502;2022-07-05T06:39:11;20.70;99.90
2010;DHT22;1008;47.404;8.502;2022-07-05T06:41:37;20.90;99.90
2010;DHT22;1008;47.404;8.502;2022-07-05T06:44:04;20.90;99.90
2010;DHT22;1008;47.404;8.502;2022-07-05T06:46:31;20.90;99.90
2010;DHT22;1008;47.404;8.502;2022-07-05T06:48:57;20.80;99.90
2010;DHT22;1008;47.404;8.502;2022-07-05T06:51:25;20.70;99.90
2010;DHT22;1008;47.404;8.502;2022-07-05T06:53:52;20.80;99.90
2010;DHT22;1008;47.404;8.502;2022-07-05T06:56:19;20.90;99.90
2010;DHT22;1008;47.404;8.502;2022-07-05T06:58:46;21.10;99.90
2010;DHT22;1008;47.404;8.502;2022-07-05T07:01:12;21.20;99.90
2010;DHT22;1008;47.404;8.502;2022-07-05T07:03:39;21.20;99.90
2010;DHT22;1008;47.404;8.502;2022-07-05T07:06:06;21.30;99.90
2010;DHT22;1008;47.404;8.502;2022-07-05T07:08:34;21.30;99.90
2010;DHT22;1008;47.404;8.502;2022-07-05T07:11:18;21.30;99.90
2010;DHT22;1008;47.404;8.502;2022-07-05T07:13:45;21.40;99.90
2010;DHT22;1008;47.404;8.502;2022-07-05T07:16:11;21.50;99.90
2010;DHT22;1008;47.404;8.502;2022-07-05T07:18:38;21.50;99.90
2010;DHT22;1008;47.404;8.502;2022-07-05T07:21:05;21.50;99.90
2010;DHT22;1008;47.404;8.502;2022-07-05T07:23:33;21.50;99.90
2010;DHT22;1008;47.404;8.502;2022-07-05T07:26:01;21.50;99.90
2010;DHT22;1008;47.404;8.502;2022-07-05T07:28:28;21.50;99.90
2010;DHT22;1008;47.404;8.502;2022-07-05T07:30:55;21.50;99.90
2010;DHT22;1008;47.404;8.502;2022-07-05T07:33:22;21.30;99.90
2010;DHT22;1008;47.404;8.502;2022-07-05T07:35:49;21.40;99.90
2010;DHT22;1008;47.404;8.502;2022-07-05T07:38:16;21.40;99.90
2010;DHT22;1008;47.404;8.502;2022-07-05T07:40:44;21.40;99.90
2010;DHT22;1008;47.404;8.502;2022-07-05T07:43:10;21.30;99.90
2010;DHT22;1008;47.404;8.502;2022-07-05T07:45:37;21.50;99.90
2010;DHT22;1008;47.404;8.502;2022-07-05T07:48:04;21.50;99.90
2010;DHT22;1008;47.404;8.502;2022-07-05T07:50:31;21.40;99.90
2010;DHT22;1008;47.404;8.502;2022-07-05T07:52:58;21.50;99.90
2010;DHT22;1008;47.404;8.502;2022-07-05T07:55:24;21.40;99.90
2010;DHT22;1008;47.404;8.502;2022-07-05T07:57:53;21.50;99.90
2010;DHT22;1008;47.404;8.502;2022-07-05T08:00:19;21.60;99.90
2010;DHT22;1008;47.404;8.502;2022-07-05T08:02:51;21.50;99.90
2010;DHT22;1008;47.404;8.502;2022-07-05T08:05:18;21.80;99.90
2010;DHT22;1008;47.404;8.502;2022-07-05T08:07:45;21.70;99.90
2010;DHT22;1008;47.404;8.502;2022-07-05T08:10:12;21.50;99.90
2010;DHT22;1008;47.404;8.502;2022-07-05T08:12:38;21.60;99.90
2010;DHT22;1008;47.404;8.502;2022-07-05T08:15:08;21.70;99.90
2010;DHT22;1008;47.404;8.502;2022-07-05T08:17:35;22.00;99.90
2010;DHT22;1008;47.404;8.502;2022-07-05T08:20:02;22.30;99.90
2010;DHT22;1008;47.404;8.502;2022-07-05T08:22:46;22.40;99.90
2010;DHT22;1008;47.404;8.502;2022-07-05T08:25:13;22.70;99.90
2010;DHT22;1008;47.404;8.502;2022-07-05T08:27:42;23.10;99.90
2010;DHT22;1008;47.404;8.502;2022-07-05T08:30:11;23.10;99.90
2010;DHT22;1008;47.404;8.502;2022-07-05T08:32:38;23.10;99.90
2010;DHT22;1008;47.404;8.502;2022-07-05T08:35:05;23.30;99.90
2010;DHT22;1008;47.404;8.502;2022-07-05T08:37:32;23.30;99.90
2010;DHT22;1008;47.404;8.502;2022-07-05T08:39:58;23.50;99.90
2010;DHT22;1008;47.404;8.502;2022-07-05T08:42:25;23.60;99.90
2010;DHT22;1008;47.404;8.502;2022-07-05T08:44:54;23.50;99.90
2010;DHT22;1008;47.404;8.502;2022-07-05T08:47:23;23.60;99.90
2010;DHT22;1008;47.404;8.502;2022-07-05T08:49:52;23.70;99.90
2010;DHT22;1008;47.404;8.502;2022-07-05T08:52:20;23.60;99.90
2010;DHT22;1008;47.404;8.502;2022-07-05T08:54:47;23.80;99.90
2010;DHT22;1008;47.404;8.502;2022-07-05T08:57:14;23.70;99.90
2010;DHT22;1008;47.404;8.502;2022-07-05T08:59:41;23.60;99.90
2010;DHT22;1008;47.404;8.502;2022-07-05T09:02:11;23.60;99.90
2010;DHT22;1008;47.404;8.502;2022-07-05T09:04:42;23.80;99.90
2010;DHT22;1008;47.404;8.502;2022-07-05T09:07:14;24.10;99.90
2010;DHT22;1008;47.404;8.502;2022-07-05T09:09:42;24.10;99.90
2010;DHT22;1008;47.404;8.502;2022-07-05T09:12:11;24.20;99.90
2010;DHT22;1008;47.404;8.502;2022-07-05T09:14:38;24.20;99.90
2010;DHT22;1008;47.404;8.502;2022-07-05T09:17:05;24.70;99.90
2010;DHT22;1008;47.404;8.502;2022-07-05T09:19:32;25.20;99.90
2010;DHT22;1008;47.404;8.502;2022-07-05T09:22:05;25.50;99.90
2010;DHT22;1008;47.404;8.502;2022-07-05T09:24:42;25.80;99.90
2010;DHT22;1008;47.404;8.502;2022-07-05T09:27:09;25.80;99.90
2010;DHT22;1008;47.404;8.502;2022-07-05T09:29:36;25.80;99.90
2010;DHT22;1008;47.404;8.502;2022-07-05T09:32:04;26.00;99.90
2010;DHT22;1008;47.404;8.502;2022-07-05T09:34:31;26.30;99.90
2010;DHT22;1008;47.404;8.502;2022-07-05T09:37:00;26.50;99.90
2010;DHT22;1008;47.404;8.502;2022-07-05T09:39:39;25.80;99.90
2010;DHT22;1008;47.404;8.502;2022-07-05T09:42:15;25.40;99.90
2010;DHT22;1008;47.404;8.502;2022-07-05T09:44:46;25.20;99.90
2010;DHT22;1008;47.404;8.502;2022-07-05T09:47:14;25.20;99.90
2010;DHT22;1008;47.404;8.502;2022-07-05T09:49:42;25.20;99.90
2010;DHT22;1008;47.404;8.502;2022-07-05T09:52:10;25.50;99.90
2010;DHT22;1008;47.404;8.502;2022-07-05T09:54:38;25.60;99.90
2010;DHT22;1008;47.404;8.502;2022-07-05T09:57:06;25.70;99.90
2010;DHT22;1008;47.404;8.502;2022-07-05T09:59:32;26.00;99.90
2010;DHT22;1008;47.404;8.502;2022-07-05T10:01:59;25.50;99.90
2010;DHT22;1008;47.404;8.502;2022-07-05T10:04:26;25.00;99.90
2010;DHT22;1008;47.404;8.502;2022-07-05T10:06:53;24.50;99.90
2010;DHT22;1008;47.404;8.502;2022-07-05T10:09:20;24.60;99.90
2010;DHT22;1008;47.404;8.502;2022-07-05T10:11:50;24.60;99.90
2010;DHT22;1008;47.404;8.502;2022-07-05T10:14:19;24.40;99.90
2010;DHT22;1008;47.404;8.502;2022-07-05T10:16:56;24.40;99.90
2010;DHT22;1008;47.404;8.502;2022-07-05T10:19:28;24.70;99.90
2010;DHT22;1008;47.404;8.502;2022-07-05T10:21:55;25.30;99.90
2010;DHT22;1008;47.404;8.502;2022-07-05T10:24:22;25.60;99.90
2010;DHT22;1008;47.404;8.502;2022-07-05T10:26:51;25.70;99.90
2010;DHT22;1008;47.404;8.502;2022-07-05T10:29:19;25.60;99.90
2010;DHT22;1008;47.404;8.502;2022-07-05T10:31:46;25.80;99.90
2010;DHT22;1008;47.404;8.502;2022-07-05T10:34:14;26.10;99.90
2010;DHT22;1008;47.404;8.502;2022-07-05T10:36:41;26.40;99.90
2010;DHT22;1008;47.404;8.502;2022-07-05T10:39:09;27.00;99.90
2010;DHT22;1008;47.404;8.502;2022-07-05T10:41:37;27.10;99.90
2010;DHT22;1008;47.404;8.502;2022-07-05T10:44:07;27.20;99.90
2010;DHT22;1008;47.404;8.502;2022-07-05T10:46:35;27.20;98.20
2010;DHT22;1008;47.404;8.502;2022-07-05T10:49:14;26.80;95.60
2010;DHT22;1008;47.404;8.502;2022-07-05T10:51:41;26.60;94.00
2010;DHT22;1008;47.404;8.502;2022-07-05T10:54:08;26.70;94.30
2010;DHT22;1008;47.404;8.502;2022-07-05T10:56:35;26.80;93.50
2010;DHT22;1008;47.404;8.502;2022-07-05T10:59:07;26.80;92.20
2010;DHT22;1008;47.404;8.502;2022-07-05T11:01:39;26.70;93.10
2010;DHT22;1008;47.404;8.502;2022-07-05T11:04:25;26.80;91.60
2010;DHT22;1008;47.404;8.502;2022-07-05T11:07:02;26.70;92.20
2010;DHT22;1008;47.404;8.502;2022-07-05T11:09:29;27.00;90.60
2010;DHT22;1008;47.404;8.502;2022-07-05T11:12:12;27.20;90.60
2010;DHT22;1008;47.404;8.502;2022-07-05T11:14:45;27.40;92.80
2010;DHT22;1008;47.404;8.502;2022-07-05T11:17:21;27.00;92.20
2010;DHT22;1008;47.404;8.502;2022-07-05T11:20:07;27.00;90.40
2010;DHT22;1008;47.404;8.502;2022-07-05T11:22:35;26.90;90.10
2010;DHT22;1008;47.404;8.502;2022-07-05T11:25:03;26.80;89.70
2010;DHT22;1008;47.404;8.502;2022-07-05T11:27:30;27.00;90.60
2010;DHT22;1008;47.404;8.502;2022-07-05T11:29:59;26.70;89.10
2010;DHT22;1008;47.404;8.502;2022-07-05T11:32:35;27.00;90.00
2010;DHT22;1008;47.404;8.502;2022-07-05T11:35:14;27.50;90.00
2010;DHT22;1008;47.404;8.502;2022-07-05T11:37:58;27.90;86.30
2010;DHT22;1008;47.404;8.502;2022-07-05T11:40:28;28.20;88.80
2010;DHT22;1008;47.404;8.502;2022-07-05T11:42:56;28.50;92.90
2010;DHT22;1008;47.404;8.502;2022-07-05T11:45:24;28.80;87.80
2010;DHT22;1008;47.404;8.502;2022-07-05T11:47:53;28.90;85.30
2010;DHT22;1008;47.404;8.502;2022-07-05T11:50:29;28.50;82.00
2010;DHT22;1008;47.404;8.502;2022-07-05T11:52:57;27.70;84.30
2010;DHT22;1008;47.404;8.502;2022-07-05T11:55:25;27.60;83.50
2010;DHT22;1008;47.404;8.502;2022-07-05T11:57:54;27.40;86.30
2010;DHT22;1008;47.404;8.502;2022-07-05T12:00:30;28.00;83.70
2010;DHT22;1008;47.404;8.502;2022-07-05T12:02:57;27.70;86.40
2010;DHT22;1008;47.404;8.502;2022-07-05T12:05:29;27.40;89.50
2010;DHT22;1008;47.404;8.502;2022-07-05T12:07:56;27.30;86.60
2010;DHT22;1008;47.404;8.502;2022-07-05T12:10:23;27.50;86.20
2010;DHT22;1008;47.404;8.502;2022-07-05T12:13:08;27.90;83.50
2010;DHT22;1008;47.404;8.502;2022-07-05T12:15:37;28.40;85.40
2010;DHT22;1008;47.404;8.502;2022-07-05T12:18:05;28.70;80.90
2010;DHT22;1008;47.404;8.502;2022-07-05T12:20:33;28.70;80.20
2010;DHT22;1008;47.404;8.502;2022-07-05T12:23:00;28.80;81.90
2010;DHT22;1008;47.404;8.502;2022-07-05T12:25:28;29.00;83.60
2010;DHT22;1008;47.404;8.502;2022-07-05T12:27:56;29.10;82.50
2010;DHT22;1008;47.404;8.502;2022-07-05T12:30:23;29.10;79.50
2010;DHT22;1008;47.404;8.502;2022-07-05T12:32:59;28.50;84.70
2010;DHT22;1008;47.404;8.502;2022-07-05T12:35:30;28.30;82.00
2010;DHT22;1008;47.404;8.502;2022-07-05T12:38:02;28.30;81.00
2010;DHT22;1008;47.404;8.502;2022-07-05T12:40:29;28.10;78.60
2010;DHT22;1008;47.404;8.502;2022-07-05T12:43:07;28.20;79.30
2010;DHT22;1008;47.404;8.502;2022-07-05T12:45:34;28.40;81.20
2010;DHT22;1008;47.404;8.502;2022-07-05T12:48:04;27.90;78.40
2010;DHT22;1008;47.404;8.502;2022-07-05T12:50:44;28.40;77.90
2010;DHT22;1008;47.404;8.502;2022-07-05T12:53:12;28.60;78.90
2010;DHT22;1008;47.404;8.502;2022-07-05T12:56:01;29.00;76.90
2010;DHT22;1008;47.404;8.502;2022-07-05T12:58:46;28.90;77.40
2010;DHT22;1008;47.404;8.502;2022-07-05T13:01:24;29.50;79.90
2010;DHT22;1008;47.404;8.502;2022-07-05T13:04:04;29.80;75.80
2010;DHT22;1008;47.404;8.502;2022-07-05T13:06:41;29.70;75.50
2010;DHT22;1008;47.404;8.502;2022-07-05T13:09:08;29.20;74.30
2010;DHT22;1008;47.404;8.502;2022-07-05T13:11:35;29.00;74.40
2010;DHT22;1008;47.404;8.502;2022-07-05T13:14:02;28.60;74.70
2010;DHT22;1008;47.404;8.502;2022-07-05T13:16:29;28.10;76.70
2010;DHT22;1008;47.404;8.502;2022-07-05T13:19:07;28.20;78.40
2010;DHT22;1008;47.404;8.502;2022-07-05T13:21:34;28.40;76.20
2010;DHT22;1008;47.404;8.502;2022-07-05T13:24:01;28.50;76.20
2010;DHT22;1008;47.404;8.502;2022-07-05T13:26:28;28.60;75.70
2010;DHT22;1008;47.404;8.502;2022-07-05T13:28:54;28.80;77.00
2010;DHT22;1008;47.404;8.502;2022-07-05T13:31:21;29.10;75.40
2010;DHT22;1008;47.404;8.502;2022-07-05T13:33:48;29.20;73.50
2010;DHT22;1008;47.404;8.502;2022-07-05T13:36:16;29.00;72.00
2010;DHT22;1008;47.404;8.502;2022-07-05T13:38:43;28.90;72.00
2010;DHT22;1008;47.404;8.502;2022-07-05T13:41:17;28.40;74.50
2010;DHT22;1008;47.404;8.502;2022-07-05T13:43:44;28.30;73.80
2010;DHT22;1008;47.404;8.502;2022-07-05T13:46:11;28.10;70.70
2010;DHT22;1008;47.404;8.502;2022-07-05T13:48:39;28.70;71.80
2010;DHT22;1008;47.404;8.502;2022-07-05T13:51:06;28.80;66.70
2010;DHT22;1008;47.404;8.502;2022-07-05T13:53:33;28.80;65.70
2010;DHT22;1008;47.404;8.502;2022-07-05T13:56:02;28.90;68.30
2010;DHT22;1008;47.404;8.502;2022-07-05T13:58:30;28.70;67.50
2010;DHT22;1008;47.404;8.502;2022-07-05T14:00:57;28.00;69.30
2010;DHT22;1008;47.404;8.502;2022-07-05T14:03:24;27.70;70.20
2010;DHT22;1008;47.404;8.502;2022-07-05T14:05:51;27.30;73.00
2010;DHT22;1008;47.404;8.502;2022-07-05T14:08:17;27.30;74.90
2010;DHT22;1008;47.404;8.502;2022-07-05T14:10:47;27.50;74.30
2010;DHT22;1008;47.404;8.502;2022-07-05T14:13:16;27.50;70.80
2010;DHT22;1008;47.404;8.502;2022-07-05T14:15:44;27.90;69.90
2010;DHT22;1008;47.404;8.502;2022-07-05T14:18:13;28.10;69.40
2010;DHT22;1008;47.404;8.502;2022-07-05T14:20:39;28.30;68.10
2010;DHT22;1008;47.404;8.502;2022-07-05T14:23:06;28.80;65.20
2010;DHT22;1008;47.404;8.502;2022-07-05T14:25:34;28.70;66.40
2010;DHT22;1008;47.404;8.502;2022-07-05T14:28:00;28.20;69.00
2010;DHT22;1008;47.404;8.502;2022-07-05T14:30:28;28.20;70.80
2010;DHT22;1008;47.404;8.502;2022-07-05T14:32:56;28.30;69.20
2010;DHT22;1008;47.404;8.502;2022-07-05T14:35:22;28.30;65.40
2010;DHT22;1008;47.404;8.502;2022-07-05T14:37:49;28.30;64.60
2010;DHT22;1008;47.404;8.502;2022-07-05T14:40:16;28.40;65.80
2010;DHT22;1008;47.404;8.502;2022-07-05T14:42:44;28.60;66.60
2010;DHT22;1008;47.404;8.502;2022-07-05T14:45:11;28.50;60.80
2010;DHT22;1008;47.404;8.502;2022-07-05T14:47:37;28.40;67.20
2010;DHT22;1008;47.404;8.502;2022-07-05T14:50:06;28.20;69.20
2010;DHT22;1008;47.404;8.502;2022-07-05T14:52:33;28.10;65.70
2010;DHT22;1008;47.404;8.502;2022-07-05T14:55:00;28.50;66.20
2010;DHT22;1008;47.404;8.502;2022-07-05T14:57:27;29.00;67.00
2010;DHT22;1008;47.404;8.502;2022-07-05T14:59:53;29.10;66.80
2010;DHT22;1008;47.404;8.502;2022-07-05T15:02:20;29.40;66.20
2010;DHT22;1008;47.404;8.502;2022-07-05T15:04:47;29.20;64.20
2010;DHT22;1008;47.404;8.502;2022-07-05T15:07:16;29.00;62.70
2010;DHT22;1008;47.404;8.502;2022-07-05T15:09:42;28.80;60.70
2010;DHT22;1008;47.404;8.502;2022-07-05T15:12:09;28.50;59.90
2010;DHT22;1008;47.404;8.502;2022-07-05T15:14:36;28.30;61.90
2010;DHT22;1008;47.404;8.502;2022-07-05T15:17:03;28.50;61.90
2010;DHT22;1008;47.404;8.502;2022-07-05T15:19:30;28.00;60.20
2010;DHT22;1008;47.404;8.502;2022-07-05T15:21:57;28.30;62.00
2010;DHT22;1008;47.404;8.502;2022-07-05T15:24:25;28.30;61.60
2010;DHT22;1008;47.404;8.502;2022-07-05T15:26:52;28.50;63.00
2010;DHT22;1008;47.404;8.502;2022-07-05T15:29:19;28.60;63.90
2010;DHT22;1008;47.404;8.502;2022-07-05T15:31:46;28.90;65.50
2010;DHT22;1008;47.404;8.502;2022-07-05T15:34:12;28.80;63.40
2010;DHT22;1008;47.404;8.502;2022-07-05T15:36:39;29.00;61.80
2010;DHT22;1008;47.404;8.502;2022-07-05T15:39:06;29.20;61.30
2010;DHT22;1008;47.404;8.502;2022-07-05T15:41:34;29.10;59.40
2010;DHT22;1008;47.404;8.502;2022-07-05T15:44:02;29.00;59.70
2010;DHT22;1008;47.404;8.502;2022-07-05T15:46:29;29.20;61.10
2010;DHT22;1008;47.404;8.502;2022-07-05T15:49:17;29.10;57.60
2010;DHT22;1008;47.404;8.502;2022-07-05T15:51:44;28.90;57.00
2010;DHT22;1008;47.404;8.502;2022-07-05T15:54:11;29.00;57.70
2010;DHT22;1008;47.404;8.502;2022-07-05T15:56:39;29.20;58.10
2010;DHT22;1008;47.404;8.502;2022-07-05T15:59:06;29.00;58.30
2010;DHT22;1008;47.404;8.502;2022-07-05T16:01:33;28.60;59.60
2010;DHT22;1008;47.404;8.502;2022-07-05T16:04:00;28.50;59.60
2010;DHT22;1008;47.404;8.502;2022-07-05T16:06:27;28.60;60.00
2010;DHT22;1008;47.404;8.502;2022-07-05T16:08:53;28.70;59.00